createdAt,value
2019-02-20T00:04:25.912Z,15.53
2019-02-20T00:09:29.320Z,11.70
2019-02-20T00:14:32.974Z,13.33
2019-02-20T00:19:36.382Z,13.17
2019-02-20T00:24:39.719Z,13.63
2019-02-20T00:29:43.126Z,13.53
2019-02-20T00:34:46.536Z,12.40
2019-02-20T00:39:50.251Z,13.00
2019-02-20T00:44:55.358Z,14.27
2019-02-20T00:49:58.839Z,9.90
2019-02-20T00:55:02.590Z,11.60
2019-02-20T01:00:09.339Z,11.27
2019-02-20T01:05:13.164Z,14.30
2019-02-20T01:10:16.289Z,16.23
2019-02-20T01:15:19.710Z,18.07
2019-02-20T01:20:23.126Z,11.80
2019-02-20T01:25:26.531Z,13.67
2019-02-20T01:30:29.947Z,12.90
2019-02-20T01:35:33.350Z,13.43
2019-02-20T01:40:37.069Z,13.07
2019-02-20T01:45:40.381Z,13.43
2019-02-20T01:50:43.469Z,16.13
2019-02-20T01:55:47.215Z,10.87
2019-02-20T02:00:50.884Z,13.47
2019-02-20T02:05:54.278Z,12.67
2019-02-20T02:10:57.729Z,13.83
2019-02-20T02:16:01.491Z,15.27
2019-02-20T02:21:04.973Z,14.23
2019-02-20T02:26:10.949Z,11.33
2019-02-20T02:31:13.571Z,12.78
2019-02-20T02:36:17.028Z,10.70
2019-02-20T02:41:20.707Z,12.07
2019-02-20T02:46:24.119Z,14.20
2019-02-20T02:51:27.196Z,15.17
2019-02-20T02:56:30.556Z,12.23
2019-02-20T03:01:33.976Z,17.20
2019-02-20T03:06:37.683Z,14.40
2019-02-20T03:11:40.769Z,13.90
2019-02-20T03:16:44.182Z,12.20
2019-02-20T03:21:47.931Z,12.13
2019-02-20T03:26:51.665Z,12.03
2019-02-20T03:31:54.739Z,11.93
2019-02-20T03:36:58.090Z,12.53
2019-02-20T03:42:01.496Z,15.73
2019-02-20T03:47:04.569Z,12.90
2019-02-20T03:52:08.843Z,12.67
2019-02-20T03:57:12.572Z,14.67
2019-02-20T04:02:16.272Z,13.00
2019-02-20T04:07:19.663Z,12.37
2019-02-20T04:12:22.958Z,12.70
2019-02-20T04:17:26.355Z,14.90
2019-02-20T04:22:30.039Z,13.17
2019-02-20T04:27:33.102Z,11.33
2019-02-20T04:32:36.499Z,13.97
2019-02-20T04:37:40.171Z,9.37
2019-02-20T04:42:43.900Z,16.13
2019-02-20T04:47:47.306Z,11.83
2019-02-20T04:52:50.395Z,14.10
2019-02-20T04:58:17.458Z,11.53
2019-02-20T05:03:20.599Z,13.03
2019-02-20T05:08:24.024Z,14.00
2019-02-20T05:13:28.394Z,13.13
2019-02-20T05:18:32.288Z,13.00
2019-02-20T05:23:35.362Z,12.87
2019-02-20T05:28:39.131Z,14.60
2019-02-20T05:33:42.825Z,13.98
2019-02-20T05:38:46.230Z,15.43
2019-02-20T05:43:49.990Z,15.50
2019-02-20T05:48:53.683Z,9.63
2019-02-20T05:53:57.108Z,11.87
2019-02-20T05:59:00.811Z,13.93
2019-02-20T06:04:04.274Z,11.50
2019-02-20T06:09:07.325Z,11.67
2019-02-20T06:14:10.727Z,16.70
2019-02-20T06:19:13.808Z,15.30
2019-02-20T06:24:17.499Z,14.20
2019-02-20T06:29:20.915Z,15.00
2019-02-20T06:34:24.340Z,15.27
2019-02-20T06:39:27.741Z,17.50
2019-02-20T06:44:30.814Z,13.67
2019-02-20T06:49:34.215Z,14.13
2019-02-20T06:54:37.578Z,13.85
2019-02-20T06:59:40.655Z,16.03
2019-02-20T07:04:46.046Z,18.20
2019-02-20T07:09:58.506Z,14.83
2019-02-20T07:15:21.344Z,17.00
2019-02-20T07:20:34.065Z,15.50
2019-02-20T07:25:58.535Z,15.77
2019-02-20T07:31:01.632Z,15.30
2019-02-20T07:36:04.737Z,15.23
2019-02-20T07:41:07.799Z,12.50
2019-02-20T07:46:11.521Z,13.13
2019-02-20T07:51:14.981Z,14.13
2019-02-20T07:56:18.358Z,13.10
2019-02-20T08:01:21.760Z,14.83
2019-02-20T08:06:25.088Z,13.43
2019-02-20T08:11:28.485Z,15.57
2019-02-20T08:16:31.812Z,14.03
2019-02-20T08:21:35.207Z,11.90
2019-02-20T08:26:38.937Z,12.47
2019-02-20T08:31:42.013Z,12.57
2019-02-20T08:36:45.110Z,16.20
2019-02-20T08:41:48.483Z,15.90
2019-02-20T08:46:51.893Z,21.20
2019-02-20T08:51:54.970Z,15.13
2019-02-20T08:56:58.381Z,17.70
2019-02-20T09:02:01.783Z,17.87
2019-02-20T09:07:05.140Z,18.27
2019-02-20T09:12:08.552Z,19.20
2019-02-20T09:17:11.978Z,19.80
2019-02-20T09:22:15.298Z,17.57
2019-02-20T09:27:18.995Z,19.77
2019-02-20T09:32:22.735Z,18.43
2019-02-20T09:37:26.435Z,20.37
2019-02-20T09:42:29.923Z,20.87
2019-02-20T09:47:33.612Z,20.07
2019-02-20T09:52:36.687Z,20.57
2019-02-20T09:57:40.110Z,17.40
2019-02-20T10:02:43.815Z,20.57
2019-02-20T10:07:47.226Z,18.13
2019-02-20T10:12:50.635Z,18.12
2019-02-20T10:17:54.372Z,19.37
2019-02-20T10:22:57.785Z,15.57
2019-02-20T10:28:01.510Z,19.30
2019-02-20T10:33:05.227Z,19.53
2019-02-20T10:38:08.303Z,16.70
2019-02-20T10:43:11.718Z,19.73
2019-02-20T10:48:15.418Z,18.20
2019-02-20T10:53:18.826Z,18.43
2019-02-20T10:58:22.239Z,17.97
2019-02-20T11:03:25.630Z,16.00
2019-02-20T11:08:30.438Z,13.10
2019-02-20T11:13:33.926Z,13.90
2019-02-20T11:18:37.392Z,14.17
2019-02-20T11:23:40.802Z,15.90
2019-02-20T11:28:44.206Z,15.30
2019-02-20T11:33:47.519Z,14.87
2019-02-20T11:38:50.597Z,13.20
2019-02-20T11:43:54.007Z,12.77
2019-02-20T11:48:57.085Z,15.37
2019-02-20T11:54:00.531Z,12.50
2019-02-20T11:59:03.946Z,15.03
2019-02-20T12:04:07.613Z,12.43
2019-02-20T12:09:30.064Z,12.30
2019-02-20T12:14:33.407Z,12.33
2019-02-20T12:19:36.810Z,13.37
2019-02-20T12:24:40.214Z,15.93
2019-02-20T12:29:43.618Z,12.23
2019-02-20T12:34:46.697Z,11.77
2019-02-20T12:39:50.342Z,13.10
2019-02-20T12:44:54.088Z,10.57
2019-02-20T12:49:57.811Z,10.93
2019-02-20T12:55:01.237Z,13.13
2019-02-20T13:00:06.203Z,11.83
2019-02-20T13:05:10.423Z,12.00
2019-02-20T13:10:14.233Z,10.47
2019-02-20T13:15:17.658Z,9.90
2019-02-20T13:20:21.389Z,10.33
2019-02-20T13:25:25.243Z,11.97
2019-02-20T13:30:28.338Z,9.80
2019-02-20T13:35:32.028Z,6.60
2019-02-20T13:40:35.745Z,6.27
2019-02-20T13:45:39.072Z,6.57
2019-02-20T13:50:43.085Z,5.70
2019-02-20T13:55:46.487Z,6.27
2019-02-20T14:00:49.827Z,4.60
2019-02-20T14:05:53.154Z,5.60
2019-02-20T14:10:56.462Z,7.37
2019-02-20T14:16:00.239Z,6.87
2019-02-20T14:21:03.310Z,7.03
2019-02-20T14:26:06.394Z,6.43
2019-02-20T14:31:09.808Z,6.73
2019-02-20T14:36:13.118Z,7.10
2019-02-20T14:41:16.837Z,6.67
2019-02-20T14:46:19.907Z,6.33
2019-02-20T14:51:23.656Z,8.77
2019-02-20T14:56:27.375Z,7.47
2019-02-20T15:01:30.777Z,8.87
2019-02-20T15:06:33.937Z,8.43
2019-02-20T15:11:37.327Z,7.47
2019-02-20T15:16:40.639Z,6.77
2019-02-20T15:21:44.160Z,8.23
2019-02-20T15:26:47.866Z,17.73
2019-02-20T15:31:51.587Z,13.33
2019-02-20T15:36:54.994Z,10.43
2019-02-20T15:41:58.325Z,7.40
2019-02-20T15:47:02.115Z,10.10
2019-02-20T15:52:05.431Z,8.77
2019-02-20T15:57:10.645Z,8.63
2019-02-20T16:02:14.075Z,6.63
2019-02-20T16:07:17.161Z,8.33
2019-02-20T16:12:20.847Z,6.93
2019-02-20T16:17:23.936Z,8.10
2019-02-20T16:22:27.338Z,7.60
2019-02-20T16:27:30.483Z,8.40
2019-02-20T16:32:33.630Z,7.70
2019-02-20T16:37:37.308Z,8.77
2019-02-20T16:42:40.392Z,7.23
2019-02-20T16:47:43.467Z,7.83
2019-02-20T16:52:47.263Z,8.33
2019-02-20T16:57:56.706Z,9.70
2019-02-20T17:02:55.470Z,9.10
2019-02-20T17:07:58.881Z,9.47
2019-02-20T17:13:01.955Z,8.17
2019-02-20T17:18:05.859Z,7.50
2019-02-20T17:23:10.634Z,8.00
2019-02-20T17:28:14.046Z,8.33
2019-02-20T17:33:18.068Z,6.47
2019-02-20T17:38:21.482Z,6.67
2019-02-20T17:43:25.264Z,6.23
2019-02-20T17:48:28.351Z,5.03
2019-02-20T17:53:31.771Z,5.00
2019-02-20T17:58:34.925Z,11.00
2019-02-20T18:03:39.352Z,22.73
2019-02-20T18:08:42.786Z,16.60
2019-02-20T18:13:46.507Z,7.10
2019-02-20T18:18:49.602Z,9.50
2019-02-20T18:23:53.323Z,11.27
2019-02-20T18:28:56.733Z,14.53
2019-02-20T18:34:00.096Z,22.03
2019-02-20T18:39:05.204Z,60.93
2019-02-20T18:44:08.859Z,31.97
2019-02-20T18:49:12.189Z,11.57
2019-02-20T18:54:15.301Z,7.30
2019-02-20T18:59:18.398Z,9.40
2019-02-20T19:04:24.221Z,9.07
2019-02-20T19:09:27.654Z,9.40
2019-02-20T19:14:37.046Z,11.70
2019-02-20T19:20:02.767Z,10.43
2019-02-20T19:25:36.768Z,10.40
2019-02-20T19:31:11.015Z,11.35
2019-02-20T19:36:15.633Z,11.13
2019-02-20T19:41:50.725Z,10.33
2019-02-20T19:47:05.999Z,11.13
2019-02-20T19:52:18.813Z,15.17
2019-02-20T19:57:23.459Z,12.23
2019-02-20T20:02:47.466Z,11.93
2019-02-20T20:07:57.792Z,12.87
2019-02-20T20:13:02.407Z,11.27
2019-02-20T20:18:26.320Z,10.20
2019-02-20T20:23:33.944Z,13.07
2019-02-20T20:28:52.924Z,10.67
2019-02-20T20:34:06.789Z,9.60
2019-02-20T20:39:36.387Z,12.73
2019-02-20T20:45:00.861Z,14.00
2019-02-20T20:50:08.181Z,14.80
2019-02-20T20:55:31.179Z,13.93
2019-02-20T21:00:45.115Z,16.73
2019-02-20T21:06:11.054Z,16.43
2019-02-20T21:11:38.099Z,17.03
2019-02-20T21:16:45.438Z,18.27
2019-02-20T21:22:16.412Z,19.27
2019-02-20T21:27:51.157Z,20.73
2019-02-20T21:33:27.235Z,20.63
2019-02-20T21:38:33.738Z,18.97
2019-02-20T21:44:06.221Z,18.20
2019-02-20T21:49:10.830Z,18.00
2019-02-20T21:54:15.722Z,19.20
2019-02-20T21:59:20.392Z,18.73
2019-02-20T22:04:48.058Z,27.03
2019-02-20T22:10:18.796Z,21.23
2019-02-20T22:15:29.210Z,22.10
2019-02-20T22:20:39.826Z,22.37
2019-02-20T22:26:15.394Z,21.83
2019-02-20T22:31:38.262Z,18.87
2019-02-20T22:36:44.767Z,21.43
2019-02-20T22:42:07.843Z,20.17
2019-02-20T22:47:20.595Z,20.20
2019-02-20T22:52:29.583Z,19.13
2019-02-20T22:57:48.124Z,17.00
2019-02-20T23:03:15.181Z,18.43
2019-02-20T23:08:21.686Z,22.37
2019-02-20T23:13:28.471Z,17.35
2019-02-20T23:18:32.133Z,16.10
2019-02-20T23:23:35.802Z,15.43
2019-02-20T23:28:38.886Z,15.85
2019-02-20T23:33:42.637Z,15.20
2019-02-20T23:38:46.348Z,17.67
2019-02-20T23:43:49.763Z,17.93
2019-02-20T23:48:53.490Z,16.97
2019-02-20T23:53:56.583Z,18.67
2019-02-20T23:58:59.910Z,17.40
